Terminal Aerodrome Forecast
Issued by NWS

Home | Current Version | Previous Version | Text Only | Print | Product List | Glossary On
Versions: 1 2 3 4 5 6 7 8 9 10 11 12 13 14 15 16 17 18 19 20 21 22 23 24
000
FTUS43 KDDC 201737
TAFHYS
TAF
KHYS 201737Z 2018/2118 22017G25KT P6SM SKC
     FM202100 18015KT P6SM SKC
     FM210500 18012KT P6SM FEW250
     FM210800 18008KT P6SM FEW250 WS020/20040KT
     FM211200 20011KT P6SM SKC
     FM211500 20015G21KT P6SM SKC=

USA.gov is the U.S. government's official web portal to all federal, state and local government web resources and services.